createdAt,value
2019-04-16T00:01:07.312Z,2.88
2019-04-16T00:03:33.475Z,2.88
2019-04-16T00:06:06.845Z,2.88
2019-04-16T00:08:49.667Z,2.87
2019-04-16T00:11:23.251Z,2.83
2019-04-16T00:13:51.187Z,2.82
2019-04-16T00:16:17.106Z,2.81
2019-04-16T00:18:56.363Z,2.77
2019-04-16T00:21:12.898Z,2.76
2019-04-16T00:23:58.756Z,2.75
2019-04-16T00:26:26.835Z,2.74
2019-04-16T00:28:52.439Z,2.71
2019-04-16T00:31:18.336Z,2.67
2019-04-16T00:33:44.337Z,2.62
2019-04-16T00:36:10.189Z,2.59
2019-04-16T00:38:40.841Z,2.57
2019-04-16T00:41:04.280Z,2.56
2019-04-16T00:43:30.126Z,2.55
2019-04-16T00:45:56.038Z,2.53
2019-04-16T00:48:22.136Z,2.51
2019-04-16T00:50:48.099Z,2.47
2019-04-16T00:53:13.958Z,2.44
2019-04-16T00:55:42.316Z,2.42
2019-04-16T00:58:07.636Z,2.41
2019-04-16T01:00:33.623Z,2.40
2019-04-16T01:02:59.621Z,2.37
2019-04-16T01:05:25.681Z,2.35
2019-04-16T01:07:51.590Z,2.31
2019-04-16T01:10:17.733Z,2.30
2019-04-16T01:12:43.624Z,2.27
2019-04-16T01:15:09.615Z,2.26
2019-04-16T01:17:36.210Z,2.22
2019-04-16T01:20:04.365Z,2.19
2019-04-16T01:22:30.208Z,2.15
2019-04-16T01:24:56.242Z,2.12
2019-04-16T01:27:28.550Z,2.10
2019-04-16T01:29:51.723Z,2.07
2019-04-16T01:32:37.520Z,2.04
2019-04-16T01:35:05.954Z,2.02
2019-04-16T01:37:33.643Z,2.00
2019-04-16T01:40:01.595Z,1.95
2019-04-16T01:42:27.495Z,1.95
2019-04-16T01:44:53.441Z,1.93
2019-04-16T01:47:19.398Z,1.90
2019-04-16T01:49:45.364Z,1.88
2019-04-16T01:52:11.372Z,1.87
2019-04-16T01:54:37.507Z,1.84
2019-04-16T01:57:03.437Z,1.78
2019-04-16T01:59:29.351Z,1.72
2019-04-16T02:01:55.431Z,1.69
2019-04-16T02:04:21.401Z,1.68
2019-04-16T02:06:47.257Z,1.67
2019-04-16T02:09:22.382Z,1.66
2019-04-16T02:11:41.405Z,1.65
2019-04-16T02:14:07.983Z,1.63
2019-04-16T02:16:33.996Z,1.64
2019-04-16T02:19:01.322Z,1.64
2019-04-16T02:21:27.812Z,1.64
2019-04-16T02:23:54.041Z,1.64
2019-04-16T02:26:20.554Z,1.66
2019-04-16T02:28:47.600Z,1.65
2019-04-16T02:31:16.131Z,1.64
2019-04-16T02:33:41.209Z,1.63
2019-04-16T02:36:07.105Z,1.60
2019-04-16T02:38:33.137Z,1.57
2019-04-16T02:40:58.979Z,1.54
2019-04-16T02:43:24.883Z,1.54
2019-04-16T02:45:56.336Z,1.54
2019-04-16T02:48:18.720Z,1.53
2019-04-16T02:50:49.370Z,1.53
2019-04-16T02:53:33.581Z,1.53
2019-04-16T02:56:01.519Z,1.51
2019-04-16T02:58:33.941Z,1.50
2019-04-16T03:00:59.158Z,1.27
2019-04-16T03:03:32.657Z,1.49
2019-04-16T03:06:00.896Z,1.49
2019-04-16T03:08:26.485Z,1.50
2019-04-16T03:10:52.360Z,1.49
2019-04-16T03:13:23.024Z,1.50
2019-04-16T03:15:57.885Z,1.49
2019-04-16T03:18:25.626Z,1.48
2019-04-16T03:20:52.451Z,1.46
2019-04-16T03:23:19.745Z,1.45
2019-04-16T03:25:45.700Z,1.45
2019-04-16T03:28:11.611Z,1.44
2019-04-16T03:30:42.295Z,1.42
2019-04-16T03:33:10.698Z,1.39
2019-04-16T03:35:32.977Z,1.37
2019-04-16T03:38:01.636Z,1.36
2019-04-16T03:40:26.826Z,1.34
2019-04-16T03:42:52.741Z,1.32
2019-04-16T03:45:18.736Z,1.29
2019-04-16T03:47:44.617Z,1.27
2019-04-16T03:50:10.786Z,1.28
2019-04-16T03:52:37.414Z,1.28
2019-04-16T03:55:04.553Z,1.29
2019-04-16T03:57:32.634Z,1.28
2019-04-16T04:00:00.814Z,1.28
2019-04-16T04:02:26.008Z,1.27
2019-04-16T04:04:51.861Z,1.25
2019-04-16T04:07:18.017Z,1.25
2019-04-16T04:09:43.919Z,1.24
2019-04-16T04:12:13.328Z,1.25
2019-04-16T04:14:37.635Z,1.26
2019-04-16T04:17:06.684Z,1.26
2019-04-16T04:19:31.946Z,1.28
2019-04-16T04:21:57.975Z,1.29
2019-04-16T04:24:24.068Z,1.29
2019-04-16T04:26:50.037Z,1.29
2019-04-16T04:29:16.065Z,1.31
2019-04-16T04:31:42.052Z,1.31
2019-04-16T04:34:09.954Z,1.31
2019-04-16T04:36:35.766Z,1.32
2019-04-16T04:39:01.629Z,1.32
2019-04-16T04:41:27.524Z,1.34
2019-04-16T04:43:53.519Z,1.36
2019-04-16T04:46:19.523Z,1.40
2019-04-16T04:48:45.375Z,1.42
2019-04-16T04:51:11.435Z,1.46
2019-04-16T04:53:37.277Z,1.48
2019-04-16T04:56:03.241Z,1.53
2019-04-16T04:58:33.841Z,1.56
2019-04-16T05:00:57.025Z,1.59
2019-04-16T05:03:24.893Z,1.61
2019-04-16T05:05:56.159Z,1.64
2019-04-16T05:08:22.569Z,1.66
2019-04-16T05:10:59.017Z,1.71
2019-04-16T05:13:16.259Z,1.75
2019-04-16T05:15:42.149Z,1.78
2019-04-16T05:18:09.930Z,1.82
2019-04-16T05:20:35.784Z,1.89
2019-04-16T05:23:01.645Z,1.92
2019-04-16T05:25:32.877Z,1.99
2019-04-16T05:27:55.472Z,2.04
2019-04-16T05:30:22.088Z,2.10
2019-04-16T05:32:47.987Z,2.14
2019-04-16T05:35:14.255Z,1.98
2019-04-16T05:37:40.228Z,2.27
2019-04-16T05:40:06.407Z,2.33
2019-04-16T05:42:32.382Z,2.39
2019-04-16T05:44:58.230Z,2.45
2019-04-16T05:47:24.105Z,2.50
2019-04-16T05:49:50.035Z,2.56
2019-04-16T05:52:15.906Z,2.62
2019-04-16T05:55:01.618Z,2.69
2019-04-16T05:57:29.454Z,2.75
2019-04-16T05:59:55.306Z,2.82
2019-04-16T06:02:23.158Z,2.88
2019-04-16T06:04:49.023Z,2.95
2019-04-16T06:07:14.870Z,3.03
2019-04-16T06:09:41.438Z,3.11
2019-04-16T06:12:09.449Z,3.19
2019-04-16T06:14:40.075Z,3.27
2019-04-16T06:17:25.444Z,3.34
2019-04-16T06:20:01.241Z,3.43
2019-04-16T06:22:37.835Z,3.54
2019-04-16T06:25:09.322Z,3.63
2019-04-16T06:27:47.297Z,3.70
2019-04-16T06:30:33.917Z,3.77
2019-04-16T06:33:09.861Z,3.85
2019-04-16T06:35:43.443Z,3.95
2019-04-16T06:38:07.191Z,4.02
2019-04-16T06:40:38.211Z,4.09
2019-04-16T06:43:26.204Z,4.16
2019-04-16T06:45:59.130Z,4.22
2019-04-16T06:48:26.916Z,4.29
2019-04-16T06:51:12.998Z,4.36
2019-04-16T06:53:53.959Z,4.43
2019-04-16T06:56:41.083Z,4.54
2019-04-16T06:59:08.949Z,4.65
2019-04-16T07:01:41.941Z,4.75
2019-04-16T07:04:09.043Z,4.84
2019-04-16T07:06:53.336Z,4.94
2019-04-16T07:09:25.910Z,5.00
2019-04-16T07:11:59.720Z,5.08
2019-04-16T07:14:25.880Z,5.16
2019-04-16T07:16:51.950Z,5.25
2019-04-16T07:19:18.179Z,5.34
2019-04-16T07:21:48.676Z,5.44
2019-04-16T07:24:11.809Z,5.54
2019-04-16T07:26:39.550Z,5.60
2019-04-16T07:29:19.132Z,5.68
2019-04-16T07:31:52.297Z,5.77
2019-04-16T07:34:37.323Z,5.85
2019-04-16T07:37:21.480Z,5.93
2019-04-16T07:39:58.496Z,6.05
2019-04-16T07:42:26.485Z,6.15
2019-04-16T07:45:03.472Z,6.24
2019-04-16T07:47:37.160Z,6.34
2019-04-16T07:50:11.587Z,6.45
2019-04-16T07:52:45.126Z,6.55
2019-04-16T07:55:28.610Z,6.64
2019-04-16T07:57:54.656Z,6.74
2019-04-16T08:00:20.643Z,6.82
2019-04-16T08:02:46.648Z,6.91
2019-04-16T08:05:12.611Z,6.99
2019-04-16T08:07:38.489Z,7.11
2019-04-16T08:10:04.487Z,7.21
2019-04-16T08:12:31.072Z,7.29
2019-04-16T08:14:57.072Z,7.39
2019-04-16T08:17:22.939Z,7.48
2019-04-16T08:19:49.394Z,7.56
2019-04-16T08:22:16.595Z,7.64
2019-04-16T08:24:47.078Z,7.73
2019-04-16T08:27:18.061Z,7.81
2019-04-16T08:29:40.978Z,7.91
2019-04-16T08:32:06.949Z,8.00
2019-04-16T08:34:33.023Z,8.08
2019-04-16T08:36:58.876Z,8.17
2019-04-16T08:39:24.748Z,8.24
2019-04-16T08:41:52.368Z,8.33
2019-04-16T08:44:18.481Z,8.42
2019-04-16T08:46:44.318Z,8.50
2019-04-16T08:49:10.823Z,8.58
2019-04-16T08:51:37.836Z,8.67
2019-04-16T08:54:03.963Z,8.74
2019-04-16T08:56:29.937Z,8.83
2019-04-16T08:59:00.047Z,8.92
2019-04-16T09:01:28.237Z,8.99
2019-04-16T09:03:54.254Z,9.08
2019-04-16T09:06:20.128Z,9.15
2019-04-16T09:08:52.827Z,9.26
2019-04-16T09:11:23.180Z,9.35
2019-04-16T09:13:48.175Z,9.44
2019-04-16T09:16:13.087Z,9.54
2019-04-16T09:18:43.611Z,9.65
2019-04-16T09:21:10.741Z,9.74
2019-04-16T09:23:37.516Z,9.84
2019-04-16T09:26:13.987Z,9.96
2019-04-16T09:28:37.612Z,10.07
2019-04-16T09:31:05.478Z,10.22
2019-04-16T09:33:34.396Z,10.64
2019-04-16T09:36:18.547Z,11.17
2019-04-16T09:38:49.137Z,11.73
2019-04-16T09:41:22.858Z,12.27
2019-04-16T09:43:53.681Z,12.66
2019-04-16T09:46:24.897Z,12.99
2019-04-16T09:48:49.789Z,13.25
2019-04-16T09:51:19.228Z,13.46
2019-04-16T09:53:42.037Z,13.65
2019-04-16T09:56:28.956Z,13.80
2019-04-16T09:58:55.217Z,13.89
2019-04-16T10:01:23.076Z,14.02
2019-04-16T10:03:53.579Z,14.12
2019-04-16T10:06:18.845Z,14.20
2019-04-16T10:08:45.608Z,14.30
2019-04-16T10:11:11.794Z,14.40
2019-04-16T10:13:37.645Z,14.52
2019-04-16T10:16:03.739Z,14.62
2019-04-16T10:18:34.664Z,14.70
2019-04-16T10:20:57.396Z,14.76
2019-04-16T10:23:25.624Z,14.85
2019-04-16T10:25:51.735Z,14.87
2019-04-16T10:28:19.474Z,14.86
2019-04-16T10:30:47.263Z,14.91
2019-04-16T10:33:13.490Z,15.15
2019-04-16T10:35:39.367Z,15.24
2019-04-16T10:38:07.253Z,15.33
2019-04-16T10:40:38.027Z,15.41
2019-04-16T10:43:14.745Z,15.42
2019-04-16T10:45:45.665Z,15.43
2019-04-16T10:48:13.413Z,15.52
2019-04-16T10:50:50.185Z,15.60
2019-04-16T10:53:20.533Z,15.68
2019-04-16T10:55:57.791Z,15.72
2019-04-16T10:58:41.913Z,15.79
2019-04-16T11:01:10.008Z,15.84
2019-04-16T11:03:37.765Z,15.92
2019-04-16T11:06:11.527Z,16.01
2019-04-16T11:08:37.548Z,16.07
2019-04-16T11:11:03.598Z,16.11
2019-04-16T11:13:31.594Z,16.10
2019-04-16T11:15:59.452Z,16.13
2019-04-16T11:18:25.383Z,16.18
2019-04-16T11:20:51.364Z,16.20
2019-04-16T11:23:17.536Z,16.21
2019-04-16T11:25:43.496Z,16.21
2019-04-16T11:28:09.938Z,16.20
2019-04-16T11:30:40.332Z,16.20
2019-04-16T11:33:06.307Z,16.23
2019-04-16T11:35:32.478Z,16.28
2019-04-16T11:37:58.441Z,16.26
2019-04-16T11:40:24.336Z,16.24
2019-04-16T11:42:50.593Z,16.24
2019-04-16T11:45:16.635Z,16.31
2019-04-16T11:47:42.566Z,16.42
2019-04-16T11:50:08.762Z,16.52
2019-04-16T11:52:34.919Z,16.65
2019-04-16T11:55:00.947Z,16.74
2019-04-16T11:57:29.469Z,16.77
2019-04-16T12:00:06.090Z,16.74
2019-04-16T12:02:24.161Z,16.71
2019-04-16T12:05:01.308Z,16.74
2019-04-16T12:07:29.041Z,16.77
2019-04-16T12:10:13.114Z,16.81
2019-04-16T12:12:52.918Z,16.83
2019-04-16T12:15:23.776Z,16.89
2019-04-16T12:17:51.561Z,16.92
2019-04-16T12:20:35.907Z,16.91
2019-04-16T12:23:03.794Z,16.90
2019-04-16T12:25:48.249Z,16.87
2019-04-16T12:28:18.765Z,16.91
2019-04-16T12:30:58.723Z,16.96
2019-04-16T12:33:29.334Z,16.93
2019-04-16T12:36:12.823Z,16.96
2019-04-16T12:38:50.938Z,16.97
2019-04-16T12:41:35.154Z,16.94
2019-04-16T12:44:02.929Z,16.89
2019-04-16T12:46:30.633Z,16.78
2019-04-16T12:49:10.570Z,16.68
2019-04-16T12:51:44.237Z,16.67
2019-04-16T12:54:30.059Z,16.71
2019-04-16T12:57:16.202Z,16.74
2019-04-16T12:59:55.008Z,16.78
2019-04-16T13:02:28.057Z,16.78
2019-04-16T13:04:56.165Z,16.83
2019-04-16T13:07:26.531Z,16.86
2019-04-16T13:09:54.305Z,16.90
2019-04-16T13:12:38.421Z,16.95
2019-04-16T13:15:18.479Z,16.94
2019-04-16T13:17:58.109Z,16.85
2019-04-16T13:20:29.183Z,16.78
2019-04-16T13:23:11.879Z,16.76
2019-04-16T13:25:51.279Z,16.75
2019-04-16T13:28:17.336Z,16.75
2019-04-16T13:30:43.243Z,16.78
2019-04-16T13:33:09.196Z,16.73
2019-04-16T13:35:35.366Z,16.72
2019-04-16T13:38:01.557Z,16.71
2019-04-16T13:40:27.470Z,16.71
2019-04-16T13:42:53.460Z,16.67
2019-04-16T13:45:26.952Z,16.64
2019-04-16T13:47:55.664Z,16.58
2019-04-16T13:50:35.827Z,16.49
2019-04-16T13:53:03.331Z,16.47
2019-04-16T13:55:44.614Z,16.43
2019-04-16T13:58:21.474Z,16.42
2019-04-16T14:01:01.069Z,16.38
2019-04-16T14:03:27.162Z,16.34
2019-04-16T14:05:53.050Z,16.32
2019-04-16T14:08:19.112Z,16.28
2019-04-16T14:10:45.089Z,16.26
2019-04-16T14:13:13.471Z,16.22
2019-04-16T14:15:40.578Z,16.20
2019-04-16T14:18:06.687Z,16.15
2019-04-16T14:20:32.638Z,16.14
2019-04-16T14:22:58.963Z,16.12
2019-04-16T14:25:24.946Z,16.08
2019-04-16T14:27:50.892Z,16.02
2019-04-16T14:30:18.907Z,15.94
2019-04-16T14:32:44.917Z,15.87
2019-04-16T14:35:15.335Z,15.82
2019-04-16T14:37:41.281Z,15.77
2019-04-16T14:40:09.255Z,15.68
2019-04-16T14:42:35.236Z,15.62
2019-04-16T14:45:06.047Z,15.56
2019-04-16T14:47:32.961Z,15.50
2019-04-16T14:49:58.796Z,15.41
2019-04-16T14:52:24.863Z,15.36
2019-04-16T14:54:58.597Z,15.37
2019-04-16T14:57:24.571Z,15.31
2019-04-16T14:59:52.524Z,15.26
2019-04-16T15:02:22.924Z,15.19
2019-04-16T15:04:57.811Z,15.14
2019-04-16T15:07:26.008Z,15.16
2019-04-16T15:10:02.462Z,15.16
2019-04-16T15:12:29.253Z,15.17
2019-04-16T15:14:57.018Z,15.21
2019-04-16T15:17:26.299Z,15.23
2019-04-16T15:19:57.508Z,15.24
2019-04-16T15:22:25.323Z,15.22
2019-04-16T15:24:53.287Z,15.22
2019-04-16T15:27:36.127Z,15.20
2019-04-16T15:30:04.228Z,15.18
2019-04-16T15:32:34.044Z,15.20
2019-04-16T15:35:00.146Z,15.24
2019-04-16T15:37:28.118Z,15.23
2019-04-16T15:39:59.636Z,15.23
2019-04-16T15:42:27.732Z,15.23
2019-04-16T15:44:57.348Z,15.14
2019-04-16T15:47:32.543Z,15.09
2019-04-16T15:50:06.504Z,15.04
2019-04-16T15:52:39.899Z,15.00
2019-04-16T15:55:07.914Z,14.99
2019-04-16T15:57:41.675Z,14.99
2019-04-16T16:00:09.823Z,14.89
2019-04-16T16:02:37.613Z,14.82
2019-04-16T16:05:06.511Z,14.70
2019-04-16T16:07:32.880Z,14.64
2019-04-16T16:10:15.624Z,14.56
2019-04-16T16:12:41.505Z,14.52
2019-04-16T16:15:09.328Z,14.47
2019-04-16T16:17:35.834Z,14.36
2019-04-16T16:20:01.826Z,14.19
2019-04-16T16:22:27.658Z,14.04
2019-04-16T16:24:53.598Z,13.97
2019-04-16T16:27:19.433Z,13.90
2019-04-16T16:29:45.392Z,13.88
2019-04-16T16:32:11.441Z,13.84
2019-04-16T16:34:37.318Z,13.78
2019-04-16T16:37:03.312Z,13.68
2019-04-16T16:39:29.404Z,13.61
2019-04-16T16:41:55.272Z,13.52
2019-04-16T16:44:21.117Z,13.42
2019-04-16T16:46:58.618Z,13.37
2019-04-16T16:49:24.869Z,13.36
2019-04-16T16:51:53.688Z,13.35
2019-04-16T16:54:27.134Z,13.27
2019-04-16T16:57:03.513Z,13.20
2019-04-16T16:59:39.070Z,13.13
2019-04-16T17:02:24.674Z,13.07
2019-04-16T17:04:55.474Z,13.01
2019-04-16T17:07:21.419Z,12.94
2019-04-16T17:09:47.276Z,12.88
2019-04-16T17:12:13.448Z,12.74
2019-04-16T17:14:39.392Z,12.67
2019-04-16T17:17:13.811Z,12.59
2019-04-16T17:19:33.314Z,12.50
2019-04-16T17:21:59.273Z,12.44
2019-04-16T17:24:25.220Z,12.36
2019-04-16T17:26:51.339Z,12.31
2019-04-16T17:29:17.224Z,12.28
2019-04-16T17:31:43.398Z,12.19
2019-04-16T17:34:09.374Z,12.10
2019-04-16T17:36:35.335Z,12.05
2019-04-16T17:39:01.251Z,12.02
2019-04-16T17:41:38.366Z,11.97
2019-04-16T17:44:11.859Z,11.94
2019-04-16T17:46:54.943Z,11.88
2019-04-16T17:49:22.712Z,11.84
2019-04-16T17:51:53.343Z,11.78
2019-04-16T17:54:21.206Z,11.74
2019-04-16T17:57:00.982Z,11.70
2019-04-16T17:59:31.812Z,11.63
2019-04-16T18:02:02.456Z,11.59
2019-04-16T18:04:33.311Z,11.52
2019-04-16T18:07:03.693Z,11.47
2019-04-16T18:09:34.250Z,11.42
2019-04-16T18:12:16.987Z,11.36
2019-04-16T18:14:58.699Z,11.31
2019-04-16T18:17:27.662Z,11.22
2019-04-16T18:20:12.349Z,11.15
2019-04-16T18:22:41.964Z,11.07
2019-04-16T18:25:26.061Z,11.01
2019-04-16T18:28:04.632Z,10.97
2019-04-16T18:30:35.028Z,10.89
2019-04-16T18:33:08.508Z,10.83
2019-04-16T18:35:52.885Z,10.76
2019-04-16T18:38:39.044Z,10.70
2019-04-16T18:41:09.886Z,10.63
2019-04-16T18:43:46.295Z,10.57
2019-04-16T18:46:16.722Z,10.49
2019-04-16T18:48:55.492Z,10.42
2019-04-16T18:51:23.925Z,10.34
2019-04-16T18:53:49.579Z,10.26
2019-04-16T18:56:15.569Z,10.16
2019-04-16T18:58:41.947Z,10.09
2019-04-16T19:01:15.604Z,10.03
2019-04-16T19:03:41.553Z,9.96
2019-04-16T19:06:07.721Z,9.88
2019-04-16T19:08:41.590Z,9.81
2019-04-16T19:11:01.757Z,9.74
2019-04-16T19:13:27.713Z,9.68
2019-04-16T19:15:53.683Z,9.61
2019-04-16T19:18:20.413Z,9.53
2019-04-16T19:20:51.424Z,9.45
2019-04-16T19:23:14.200Z,9.38
2019-04-16T19:25:40.063Z,9.31
2019-04-16T19:28:06.960Z,9.22
2019-04-16T19:30:32.894Z,9.15
2019-04-16T19:33:00.758Z,9.07
2019-04-16T19:35:26.606Z,9.00
2019-04-16T19:37:52.887Z,8.91
2019-04-16T19:40:19.515Z,8.83
2019-04-16T19:42:45.597Z,8.76
2019-04-16T19:45:12.001Z,8.68
2019-04-16T19:47:38.552Z,8.62
2019-04-16T19:50:04.639Z,8.51
2019-04-16T19:52:30.524Z,8.42
2019-04-16T19:54:56.396Z,8.36
2019-04-16T19:57:22.622Z,8.30
2019-04-16T19:59:48.646Z,8.24
2019-04-16T20:02:14.511Z,8.19
2019-04-16T20:04:41.473Z,8.14
2019-04-16T20:07:08.338Z,8.09
2019-04-16T20:09:34.180Z,8.03
2019-04-16T20:12:00.190Z,7.98
2019-04-16T20:14:26.093Z,7.90
2019-04-16T20:16:51.959Z,7.82
2019-04-16T20:19:17.952Z,7.75
2019-04-16T20:21:43.786Z,7.71
2019-04-16T20:24:09.659Z,7.62
2019-04-16T20:26:35.720Z,7.59
2019-04-16T20:29:01.628Z,7.54
2019-04-16T20:31:27.482Z,7.48
2019-04-16T20:33:53.513Z,7.42
2019-04-16T20:36:22.414Z,7.36
2019-04-16T20:38:47.141Z,7.28
2019-04-16T20:41:18.112Z,7.21
2019-04-16T20:43:40.805Z,7.14
2019-04-16T20:46:06.670Z,7.08
2019-04-16T20:48:32.709Z,7.03
2019-04-16T20:50:59.833Z,6.97
2019-04-16T20:53:26.028Z,6.92
2019-04-16T20:55:52.041Z,6.84
2019-04-16T20:58:18.013Z,6.78
2019-04-16T21:00:45.865Z,6.74
2019-04-16T21:03:21.996Z,6.70
2019-04-16T21:05:39.525Z,6.59
2019-04-16T21:08:05.411Z,6.63
2019-04-16T21:10:35.334Z,6.58
2019-04-16T21:12:59.386Z,6.55
2019-04-16T21:15:27.423Z,6.50
2019-04-16T21:17:53.262Z,6.45
2019-04-16T21:20:20.499Z,6.41
2019-04-16T21:22:46.383Z,6.35
2019-04-16T21:25:13.901Z,6.31
2019-04-16T21:27:41.794Z,6.25
2019-04-16T21:30:12.904Z,6.16
2019-04-16T21:32:52.617Z,6.04
2019-04-16T21:35:20.368Z,5.92
2019-04-16T21:37:48.117Z,5.84
2019-04-16T21:40:14.645Z,5.81
2019-04-16T21:42:40.623Z,5.78
2019-04-16T21:45:06.766Z,5.74
2019-04-16T21:47:32.735Z,5.71
2019-04-16T21:49:58.985Z,5.69
2019-04-16T21:52:24.857Z,5.67
2019-04-16T21:54:50.888Z,5.65
2019-04-16T21:57:16.732Z,5.60
2019-04-16T21:59:42.807Z,5.57
2019-04-16T22:02:25.805Z,5.53
2019-04-16T22:04:51.636Z,5.51
2019-04-16T22:07:17.629Z,5.46
2019-04-16T22:09:43.684Z,5.43
2019-04-16T22:12:09.536Z,5.42
2019-04-16T22:14:35.415Z,5.38
2019-04-16T22:17:04.473Z,5.33
2019-04-16T22:19:29.163Z,5.29
2019-04-16T22:21:54.990Z,5.27
2019-04-16T22:24:22.915Z,5.24
2019-04-16T22:26:48.803Z,5.23
2019-04-16T22:29:15.755Z,5.19
2019-04-16T22:31:42.416Z,5.15
2019-04-16T22:34:08.488Z,5.10
2019-04-16T22:36:34.356Z,5.02
2019-04-16T22:39:05.150Z,4.98
2019-04-16T22:41:41.718Z,4.93
2019-04-16T22:44:21.469Z,4.87
2019-04-16T22:46:49.283Z,4.83
2019-04-16T22:49:15.155Z,4.79
2019-04-16T22:51:43.112Z,4.75
2019-04-16T22:54:08.841Z,4.72
2019-04-16T22:56:39.478Z,4.70
2019-04-16T22:59:06.631Z,4.68
2019-04-16T23:01:35.101Z,4.68
2019-04-16T23:04:01.059Z,4.65
2019-04-16T23:06:27.054Z,4.63
2019-04-16T23:08:52.926Z,4.60
2019-04-16T23:11:23.296Z,4.58
2019-04-16T23:13:46.610Z,4.54
2019-04-16T23:16:12.541Z,4.51
2019-04-16T23:18:38.630Z,4.49
2019-04-16T23:21:08.850Z,4.46
2019-04-16T23:23:32.277Z,4.40
2019-04-16T23:25:59.692Z,4.36
2019-04-16T23:28:25.984Z,4.32
2019-04-16T23:30:51.972Z,4.30
2019-04-16T23:33:17.931Z,4.26
2019-04-16T23:35:44.633Z,4.20
2019-04-16T23:38:10.541Z,4.14
2019-04-16T23:40:36.386Z,4.12
2019-04-16T23:43:22.085Z,3.87
2019-04-16T23:45:55.919Z,4.06
2019-04-16T23:48:23.908Z,4.02
2019-04-16T23:50:51.683Z,3.97
2019-04-16T23:53:22.056Z,3.94
2019-04-16T23:55:50.103Z,3.91
2019-04-16T23:58:29.850Z,3.87
